Riskybusiness — WDC4820 — position and weather

sailwx.info

Track history (hours):
 
Tides and Currents Weather Stations Pressure Air Temp Water Temp Dewpoint Dewpoint Depression Visibility Wind Speed Wind Dir Waves Ship Positions

Riskybusiness

Owner: mikuletzky, hunter r, manahawkin, NJ. More information available from US FCC via Universal Licensing System and Coast Guard Vessel Documentation Center.

Last reported at 2018-Jan-11 15:11 UTC. Time now 2018-Jan-20 15:30 UTC.
Position N 39°45' W 074°07'.
Warning: this ship's position is 9 days out of date.

Length 14 m.

Type: Fishing. MMSI: 367031170.

Date/timePositionNaut miles runAvg speedWind from/ knotsBaromVisibWave heightAir tempDewpointWater temp
2018-Jan-11 15:11N 39°45' W 074°07'0 1.3
2018-Jan-11 14:59N 39°45' W 074°07'4 8.0
2018-Jan-11 14:30N 39°45' W 074°02'4 2.2
2018-Jan-11 12:49N 39°45' W 073°57'513.1
2018-Jan-11 12:28N 39°45' W 074°03'3 0.2
2018-Jan-10 17:53N 39°45' W 074°07'0 0.2
2018-Jan-10 17:30N 39°45' W 074°07'4 8.3
2018-Jan-10 17:00N 39°45' W 074°02'5 2.4
2018-Jan-10 15:02N 39°45' W 073°55'0 0.4
2018-Jan-10 14:59N 39°45' W 073°55'1 2.6
2018-Jan-10 14:29N 39°45' W 073°57'2 4.7
2018-Jan-10 14:00N 39°45' W 074°00'5 9.1
2018-Jan-10 13:28N 39°46' W 074°06'  
2018-Jan-03 21:01N 39°45' W 074°07'0 0.4
2018-Jan-03 21:00N 39°45' W 074°07'0 0.1
2018-Jan-03 20:27N 39°45' W 074°07'1 1.4
2018-Jan-03 20:00N 39°46' W 074°07'4 7.2
2018-Jan-03 19:30N 39°45' W 074°02'3 4.2
2018-Jan-03 18:46N 39°45' W 073°58'0 0.5
2018-Jan-03 18:28N 39°45' W 073°58'0 0.5
2018-Jan-03 17:43N 39°45' W 073°57'0 0.4
2018-Jan-03 17:25N 39°45' W 073°57'1 0.2
2018-Jan-03 13:20N 39°45' W 073°56'411.7
2018-Jan-03 13:00N 39°45' W 074°01'4 8.6
2018-Jan-03 12:30N 39°45' W 074°07'  
Track history (hours):
 
Tides and Currents Weather Stations Pressure Air Temp Water Temp Dewpoint Dewpoint Depression Visibility Wind Speed Wind Dir Waves Ship Positions

Riskybusiness

Owner: mikuletzky, hunter r, manahawkin, NJ. More information available from US FCC via Universal Licensing System and Coast Guard Vessel Documentation Center.

Last reported at 2018-Jan-11 15:11 UTC. Time now 2018-Jan-20 15:30 UTC.
Position N 39°45' W 074°07'.
Warning: this ship's position is 9 days out of date.

Length 14 m.

Type: Fishing. MMSI: 367031170.

Date/timePositionNaut miles runAvg speedWind from/ knotsBaromVisibWave heightAir tempDewpointWater temp
2018-Jan-11 15:11N 39°45' W 074°07'0 1.3
2018-Jan-11 14:59N 39°45' W 074°07'4 8.0
2018-Jan-11 14:30N 39°45' W 074°02'4 2.2
2018-Jan-11 12:49N 39°45' W 073°57'513.1
2018-Jan-11 12:28N 39°45' W 074°03'3 0.2
2018-Jan-10 17:53N 39°45' W 074°07'0 0.2
2018-Jan-10 17:30N 39°45' W 074°07'4 8.3
2018-Jan-10 17:00N 39°45' W 074°02'5 2.4
2018-Jan-10 15:02N 39°45' W 073°55'0 0.4
2018-Jan-10 14:59N 39°45' W 073°55'1 2.6
2018-Jan-10 14:29N 39°45' W 073°57'2 4.7
2018-Jan-10 14:00N 39°45' W 074°00'5 9.1
2018-Jan-10 13:28N 39°46' W 074°06'  
2018-Jan-03 21:01N 39°45' W 074°07'0 0.4
2018-Jan-03 21:00N 39°45' W 074°07'0 0.1
2018-Jan-03 20:27N 39°45' W 074°07'1 1.4
2018-Jan-03 20:00N 39°46' W 074°07'4 7.2
2018-Jan-03 19:30N 39°45' W 074°02'3 4.2
2018-Jan-03 18:46N 39°45' W 073°58'0 0.5
2018-Jan-03 18:28N 39°45' W 073°58'0 0.5
2018-Jan-03 17:43N 39°45' W 073°57'0 0.4
2018-Jan-03 17:25N 39°45' W 073°57'1 0.2
2018-Jan-03 13:20N 39°45' W 073°56'411.7
2018-Jan-03 13:00N 39°45' W 074°01'4 8.6
2018-Jan-03 12:30N 39°45' W 074°07'  

Dump ship's entire track history